sensor_id;sensor_type;location;lat;lon;timestamp;pressure;altitude;pressure_sealevel;temperature;humidity
74708;BME280;63360;50.104;8.074;2022-10-29T00:01:56;97834.22;;;16.01;81.10
74708;BME280;63360;50.104;8.074;2022-10-29T00:04:23;97839.88;;;15.91;81.47
74708;BME280;63360;50.104;8.074;2022-10-29T00:06:49;97840.00;;;15.94;81.30
74708;BME280;63360;50.104;8.074;2022-10-29T00:09:20;97840.31;;;15.93;81.33
74708;BME280;63360;50.104;8.074;2022-10-29T00:11:47;97849.47;;;16.07;80.76
74708;BME280;63360;50.104;8.074;2022-10-29T00:14:15;97843.66;;;16.02;80.75
74708;BME280;63360;50.104;8.074;2022-10-29T00:16:41;97856.88;;;16.05;80.80
74708;BME280;63360;50.104;8.074;2022-10-29T00:19:07;97859.41;;;15.81;82.09
74708;BME280;63360;50.104;8.074;2022-10-29T00:21:34;97869.13;;;15.31;84.89
74708;BME280;63360;50.104;8.074;2022-10-29T00:24:00;97866.03;;;15.08;86.77
74708;BME280;63360;50.104;8.074;2022-10-29T00:26:28;97849.97;;;14.80;88.00
74708;BME280;63360;50.104;8.074;2022-10-29T00:28:55;97867.09;;;14.78;88.41
74708;BME280;63360;50.104;8.074;2022-10-29T00:31:23;97841.09;;;14.64;88.48
74708;BME280;63360;50.104;8.074;2022-10-29T00:33:52;97848.69;;;14.48;90.18
74708;BME280;63360;50.104;8.074;2022-10-29T00:36:20;97842.72;;;14.31;90.25
74708;BME280;63360;50.104;8.074;2022-10-29T00:38:47;97858.16;;;14.15;91.64
74708;BME280;63360;50.104;8.074;2022-10-29T00:41:23;97857.53;;;14.10;92.45
74708;BME280;63360;50.104;8.074;2022-10-29T00:46:43;97848.03;;;13.79;95.47
74708;BME280;63360;50.104;8.074;2022-10-29T00:49:13;97846.78;;;13.68;94.34
74708;BME280;63360;50.104;8.074;2022-10-29T00:51:41;97856.94;;;13.61;95.36
74708;BME280;63360;50.104;8.074;2022-10-29T00:54:09;97852.03;;;13.51;96.09
74708;BME280;63360;50.104;8.074;2022-10-29T00:56:49;97843.84;;;13.35;97.27
74708;BME280;63360;50.104;8.074;2022-10-29T00:59:17;97851.97;;;13.25;97.67
74708;BME280;63360;50.104;8.074;2022-10-29T01:01:45;97848.75;;;13.20;98.60
74708;BME280;63360;50.104;8.074;2022-10-29T01:04:13;97842.28;;;13.09;99.56
74708;BME280;63360;50.104;8.074;2022-10-29T01:06:40;97844.56;;;13.10;99.93
74708;BME280;63360;50.104;8.074;2022-10-29T01:09:10;97837.91;;;13.04;100.00
74708;BME280;63360;50.104;8.074;2022-10-29T01:17:35;97838.66;;;12.96;100.00
74708;BME280;63360;50.104;8.074;2022-10-29T01:20:25;97842.81;;;12.97;100.00
74708;BME280;63360;50.104;8.074;2022-10-29T01:26:06;97834.59;;;12.73;100.00
74708;BME280;63360;50.104;8.074;2022-10-29T01:29:00;97824.56;;;12.58;100.00
74708;BME280;63360;50.104;8.074;2022-10-29T01:31:44;97821.31;;;12.52;100.00
74708;BME280;63360;50.104;8.074;2022-10-29T01:34:28;97817.47;;;12.50;100.00
74708;BME280;63360;50.104;8.074;2022-10-29T01:37:11;97813.75;;;12.42;100.00
74708;BME280;63360;50.104;8.074;2022-10-29T01:39:43;97815.28;;;12.43;100.00
74708;BME280;63360;50.104;8.074;2022-10-29T01:42:26;97826.56;;;12.61;100.00
74708;BME280;63360;50.104;8.074;2022-10-29T01:45:06;97826.53;;;12.52;100.00
74708;BME280;63360;50.104;8.074;2022-10-29T01:47:39;97820.28;;;12.31;100.00
74708;BME280;63360;50.104;8.074;2022-10-29T01:50:09;97829.63;;;12.32;100.00
74708;BME280;63360;50.104;8.074;2022-10-29T01:52:38;97835.47;;;12.29;100.00
74708;BME280;63360;50.104;8.074;2022-10-29T01:55:05;97834.84;;;12.24;100.00
74708;BME280;63360;50.104;8.074;2022-10-29T02:00:03;97810.91;;;12.30;100.00
74708;BME280;63360;50.104;8.074;2022-10-29T02:08:20;97826.81;;;12.20;100.00
74708;BME280;63360;50.104;8.074;2022-10-29T02:10:51;97817.06;;;12.03;100.00
74708;BME280;63360;50.104;8.074;2022-10-29T02:13:22;97815.34;;;11.99;100.00
74708;BME280;63360;50.104;8.074;2022-10-29T02:15:53;97809.13;;;11.86;100.00
74708;BME280;63360;50.104;8.074;2022-10-29T02:18:21;97811.91;;;11.90;100.00
74708;BME280;63360;50.104;8.074;2022-10-29T02:20:48;97819.00;;;11.98;100.00
74708;BME280;63360;50.104;8.074;2022-10-29T02:23:14;97816.06;;;11.91;100.00
74708;BME280;63360;50.104;8.074;2022-10-29T02:25:42;97823.75;;;11.96;100.00
74708;BME280;63360;50.104;8.074;2022-10-29T02:28:09;97827.34;;;12.08;100.00
74708;BME280;63360;50.104;8.074;2022-10-29T02:30:36;97819.00;;;11.98;100.00
74708;BME280;63360;50.104;8.074;2022-10-29T02:33:02;97829.16;;;11.99;100.00
74708;BME280;63360;50.104;8.074;2022-10-29T02:35:28;97819.19;;;11.79;100.00
74708;BME280;63360;50.104;8.074;2022-10-29T02:37:55;97822.28;;;11.81;100.00
74708;BME280;63360;50.104;8.074;2022-10-29T02:40:21;97815.47;;;11.72;100.00
74708;BME280;63360;50.104;8.074;2022-10-29T02:42:47;97828.81;;;11.70;100.00
74708;BME280;63360;50.104;8.074;2022-10-29T02:45:14;97822.59;;;11.66;100.00
74708;BME280;63360;50.104;8.074;2022-10-29T02:47:40;97806.50;;;11.64;100.00
74708;BME280;63360;50.104;8.074;2022-10-29T02:50:07;97813.81;;;11.76;100.00
74708;BME280;63360;50.104;8.074;2022-10-29T02:52:34;97817.47;;;11.75;100.00
74708;BME280;63360;50.104;8.074;2022-10-29T02:55:00;97811.03;;;11.72;100.00
74708;BME280;63360;50.104;8.074;2022-10-29T02:57:26;97811.50;;;11.61;100.00
74708;BME280;63360;50.104;8.074;2022-10-29T02:59:53;97821.88;;;11.52;100.00
74708;BME280;63360;50.104;8.074;2022-10-29T03:02:19;97814.16;;;11.47;100.00
74708;BME280;63360;50.104;8.074;2022-10-29T03:04:46;97793.25;;;11.38;100.00
74708;BME280;63360;50.104;8.074;2022-10-29T03:07:12;97800.59;;;11.36;100.00
74708;BME280;63360;50.104;8.074;2022-10-29T03:09:38;97809.06;;;11.42;100.00
74708;BME280;63360;50.104;8.074;2022-10-29T03:12:05;97798.28;;;11.35;100.00
74708;BME280;63360;50.104;8.074;2022-10-29T03:14:32;97801.09;;;11.38;100.00
74708;BME280;63360;50.104;8.074;2022-10-29T03:16:58;97803.19;;;11.36;100.00
74708;BME280;63360;50.104;8.074;2022-10-29T03:19:24;97804.75;;;11.37;100.00
74708;BME280;63360;50.104;8.074;2022-10-29T03:21:51;97804.63;;;11.42;100.00
74708;BME280;63360;50.104;8.074;2022-10-29T03:24:17;97808.69;;;11.35;100.00
74708;BME280;63360;50.104;8.074;2022-10-29T03:26:43;97804.50;;;11.25;100.00
74708;BME280;63360;50.104;8.074;2022-10-29T03:29:10;97801.31;;;11.28;100.00
74708;BME280;63360;50.104;8.074;2022-10-29T03:31:36;97796.09;;;11.28;100.00
74708;BME280;63360;50.104;8.074;2022-10-29T03:34:03;97800.31;;;11.38;100.00
74708;BME280;63360;50.104;8.074;2022-10-29T03:36:29;97782.31;;;11.28;100.00
74708;BME280;63360;50.104;8.074;2022-10-29T03:38:55;97802.50;;;11.44;100.00
74708;BME280;63360;50.104;8.074;2022-10-29T03:41:22;97813.72;;;11.31;100.00
74708;BME280;63360;50.104;8.074;2022-10-29T03:43:48;97804.28;;;11.22;100.00
74708;BME280;63360;50.104;8.074;2022-10-29T03:46:15;97804.59;;;11.20;100.00
74708;BME280;63360;50.104;8.074;2022-10-29T03:48:41;97802.00;;;11.20;100.00
74708;BME280;63360;50.104;8.074;2022-10-29T03:51:08;97803.44;;;11.13;100.00
74708;BME280;63360;50.104;8.074;2022-10-29T03:53:35;97803.84;;;11.06;100.00
74708;BME280;63360;50.104;8.074;2022-10-29T03:56:02;97808.84;;;11.16;100.00
74708;BME280;63360;50.104;8.074;2022-10-29T03:58:29;97800.09;;;10.99;100.00
74708;BME280;63360;50.104;8.074;2022-10-29T04:00:57;97815.97;;;11.11;100.00
74708;BME280;63360;50.104;8.074;2022-10-29T04:03:25;97803.19;;;11.01;100.00
74708;BME280;63360;50.104;8.074;2022-10-29T04:05:52;97798.22;;;11.13;100.00
74708;BME280;63360;50.104;8.074;2022-10-29T04:08:18;97792.19;;;11.04;100.00
74708;BME280;63360;50.104;8.074;2022-10-29T04:10:46;97789.38;;;11.00;100.00
74708;BME280;63360;50.104;8.074;2022-10-29T04:13:14;97792.66;;;11.06;100.00
74708;BME280;63360;50.104;8.074;2022-10-29T04:15:40;97777.34;;;11.04;100.00
74708;BME280;63360;50.104;8.074;2022-10-29T04:18:08;97769.69;;;11.08;100.00
74708;BME280;63360;50.104;8.074;2022-10-29T04:20:36;97766.72;;;11.14;100.00
74708;BME280;63360;50.104;8.074;2022-10-29T04:23:22;97783.81;;;11.29;100.00
74708;BME280;63360;50.104;8.074;2022-10-29T04:26:09;97781.53;;;11.27;100.00
74708;BME280;63360;50.104;8.074;2022-10-29T04:28:56;97774.19;;;11.29;100.00
74708;BME280;63360;50.104;8.074;2022-10-29T04:31:22;97757.03;;;11.28;100.00
74708;BME280;63360;50.104;8.074;2022-10-29T04:33:51;97774.38;;;11.33;100.00
74708;BME280;63360;50.104;8.074;2022-10-29T04:36:18;97768.69;;;11.31;100.00
74708;BME280;63360;50.104;8.074;2022-10-29T04:38:44;97787.94;;;11.43;100.00
74708;BME280;63360;50.104;8.074;2022-10-29T04:41:10;97789.84;;;11.51;100.00
74708;BME280;63360;50.104;8.074;2022-10-29T04:43:37;97785.75;;;11.59;100.00
74708;BME280;63360;50.104;8.074;2022-10-29T04:46:03;97777.44;;;11.71;100.00
74708;BME280;63360;50.104;8.074;2022-10-29T04:48:30;97778.38;;;11.75;100.00
74708;BME280;63360;50.104;8.074;2022-10-29T04:50:56;97796.56;;;11.88;100.00
74708;BME280;63360;50.104;8.074;2022-10-29T04:53:22;97795.50;;;11.89;100.00
74708;BME280;63360;50.104;8.074;2022-10-29T04:55:49;97780.28;;;11.83;100.00
74708;BME280;63360;50.104;8.074;2022-10-29T04:58:17;97789.47;;;11.80;100.00
74708;BME280;63360;50.104;8.074;2022-10-29T05:00:45;97770.56;;;11.75;100.00
74708;BME280;63360;50.104;8.074;2022-10-29T05:03:11;97776.91;;;11.82;100.00
74708;BME280;63360;50.104;8.074;2022-10-29T05:05:38;97776.91;;;11.82;100.00
74708;BME280;63360;50.104;8.074;2022-10-29T05:08:06;97785.44;;;11.96;100.00
74708;BME280;63360;50.104;8.074;2022-10-29T05:10:35;97778.31;;;11.88;100.00
74708;BME280;63360;50.104;8.074;2022-10-29T05:13:10;97771.69;;;11.82;100.00
74708;BME280;63360;50.104;8.074;2022-10-29T05:15:37;97779.88;;;11.89;100.00
74708;BME280;63360;50.104;8.074;2022-10-29T05:18:05;97776.66;;;11.92;100.00
74708;BME280;63360;50.104;8.074;2022-10-29T05:20:32;97777.88;;;11.95;100.00
74708;BME280;63360;50.104;8.074;2022-10-29T05:23:04;97760.84;;;11.89;100.00
74708;BME280;63360;50.104;8.074;2022-10-29T05:25:32;97777.00;;;11.99;100.00
74708;BME280;63360;50.104;8.074;2022-10-29T05:28:11;97775.66;;;12.02;100.00
74708;BME280;63360;50.104;8.074;2022-10-29T05:30:38;97749.97;;;11.95;100.00
74708;BME280;63360;50.104;8.074;2022-10-29T05:33:08;97761.38;;;11.99;100.00
74708;BME280;63360;50.104;8.074;2022-10-29T05:35:35;97758.97;;;12.11;100.00
74708;BME280;63360;50.104;8.074;2022-10-29T05:38:02;97757.78;;;12.18;100.00
74708;BME280;63360;50.104;8.074;2022-10-29T05:40:29;97759.66;;;12.26;100.00
74708;BME280;63360;50.104;8.074;2022-10-29T05:42:56;97766.69;;;12.25;100.00
74708;BME280;63360;50.104;8.074;2022-10-29T05:45:23;97766.53;;;12.22;100.00
74708;BME280;63360;50.104;8.074;2022-10-29T05:48:00;97761.16;;;12.18;100.00
74708;BME280;63360;50.104;8.074;2022-10-29T05:50:28;97767.16;;;12.27;100.00
74708;BME280;63360;50.104;8.074;2022-10-29T05:52:59;97756.22;;;12.16;100.00
74708;BME280;63360;50.104;8.074;2022-10-29T05:55:27;97767.38;;;12.39;100.00
74708;BME280;63360;50.104;8.074;2022-10-29T05:57:55;97762.72;;;12.28;100.00
74708;BME280;63360;50.104;8.074;2022-10-29T06:00:22;97771.31;;;12.28;100.00
74708;BME280;63360;50.104;8.074;2022-10-29T06:02:49;97765.38;;;12.36;100.00
74708;BME280;63360;50.104;8.074;2022-10-29T06:05:15;97763.97;;;12.30;100.00
74708;BME280;63360;50.104;8.074;2022-10-29T06:07:41;97771.53;;;12.40;100.00
74708;BME280;63360;50.104;8.074;2022-10-29T06:10:08;97769.25;;;12.47;100.00
74708;BME280;63360;50.104;8.074;2022-10-29T06:12:35;97765.25;;;12.41;100.00
74708;BME280;63360;50.104;8.074;2022-10-29T06:15:01;97768.44;;;12.38;100.00
74708;BME280;63360;50.104;8.074;2022-10-29T06:17:28;97762.94;;;12.40;100.00
74708;BME280;63360;50.104;8.074;2022-10-29T06:19:54;97754.34;;;12.39;100.00
74708;BME280;63360;50.104;8.074;2022-10-29T06:22:20;97763.28;;;12.47;100.00
74708;BME280;63360;50.104;8.074;2022-10-29T06:24:47;97772.78;;;12.51;100.00
74708;BME280;63360;50.104;8.074;2022-10-29T06:27:13;97773.38;;;12.48;100.00
74708;BME280;63360;50.104;8.074;2022-10-29T06:29:39;97770.66;;;12.53;100.00
74708;BME280;63360;50.104;8.074;2022-10-29T06:32:06;97775.91;;;12.53;100.00
74708;BME280;63360;50.104;8.074;2022-10-29T06:34:32;97777.72;;;12.61;100.00
74708;BME280;63360;50.104;8.074;2022-10-29T06:36:58;97773.50;;;12.74;100.00
74708;BME280;63360;50.104;8.074;2022-10-29T06:39:25;97775.97;;;12.79;100.00
74708;BME280;63360;50.104;8.074;2022-10-29T06:41:51;97788.09;;;12.84;100.00
74708;BME280;63360;50.104;8.074;2022-10-29T06:44:17;97779.63;;;12.78;100.00
74708;BME280;63360;50.104;8.074;2022-10-29T06:46:44;97772.56;;;12.78;100.00
74708;BME280;63360;50.104;8.074;2022-10-29T06:49:10;97780.22;;;12.75;100.00
74708;BME280;63360;50.104;8.074;2022-10-29T06:51:37;97778.09;;;12.68;100.00
74708;BME280;63360;50.104;8.074;2022-10-29T06:54:03;97776.88;;;12.83;100.00
74708;BME280;63360;50.104;8.074;2022-10-29T06:56:29;97777.78;;;12.78;100.00
74708;BME280;63360;50.104;8.074;2022-10-29T06:58:56;97768.75;;;12.85;100.00
74708;BME280;63360;50.104;8.074;2022-10-29T07:01:22;97766.59;;;12.87;100.00
74708;BME280;63360;50.104;8.074;2022-10-29T07:03:53;97765.41;;;12.93;100.00
74708;BME280;63360;50.104;8.074;2022-10-29T07:06:20;97758.47;;;12.88;100.00
74708;BME280;63360;50.104;8.074;2022-10-29T07:08:46;97752.78;;;12.86;100.00
74708;BME280;63360;50.104;8.074;2022-10-29T07:11:13;97763.56;;;12.93;100.00
74708;BME280;63360;50.104;8.074;2022-10-29T07:13:40;97760.31;;;12.96;100.00
74708;BME280;63360;50.104;8.074;2022-10-29T07:16:06;97766.81;;;13.07;100.00
74708;BME280;63360;50.104;8.074;2022-10-29T07:18:33;97771.88;;;13.12;100.00
74708;BME280;63360;50.104;8.074;2022-10-29T07:21:01;97773.28;;;13.18;100.00
74708;BME280;63360;50.104;8.074;2022-10-29T07:23:28;97769.47;;;13.24;100.00
74708;BME280;63360;50.104;8.074;2022-10-29T07:26:00;97764.06;;;13.29;100.00
74708;BME280;63360;50.104;8.074;2022-10-29T07:28:26;97763.00;;;13.30;100.00
74708;BME280;63360;50.104;8.074;2022-10-29T07:30:59;97771.00;;;13.43;100.00
74708;BME280;63360;50.104;8.074;2022-10-29T07:33:29;97778.06;;;13.51;100.00
74708;BME280;63360;50.104;8.074;2022-10-29T07:35:57;97770.69;;;13.53;100.00
74708;BME280;63360;50.104;8.074;2022-10-29T07:38:24;97775.13;;;13.61;100.00
74708;BME280;63360;50.104;8.074;2022-10-29T07:40:51;97780.19;;;13.91;100.00
74708;BME280;63360;50.104;8.074;2022-10-29T07:43:19;97781.84;;;13.96;100.00
74708;BME280;63360;50.104;8.074;2022-10-29T07:45:47;97772.78;;;14.02;100.00
74708;BME280;63360;50.104;8.074;2022-10-29T07:48:19;97780.13;;;14.17;100.00
74708;BME280;63360;50.104;8.074;2022-10-29T07:50:46;97782.22;;;14.24;100.00
74708;BME280;63360;50.104;8.074;2022-10-29T07:53:13;97790.69;;;14.38;100.00
74708;BME280;63360;50.104;8.074;2022-10-29T07:55:40;97783.94;;;14.37;100.00
74708;BME280;63360;50.104;8.074;2022-10-29T07:58:10;97794.03;;;14.55;100.00
74708;BME280;63360;50.104;8.074;2022-10-29T08:00:38;97795.41;;;14.53;100.00
74708;BME280;63360;50.104;8.074;2022-10-29T08:03:05;97797.09;;;14.57;100.00
74708;BME280;63360;50.104;8.074;2022-10-29T08:05:32;97791.09;;;14.57;100.00
74708;BME280;63360;50.104;8.074;2022-10-29T08:07:58;97799.38;;;14.59;100.00
74708;BME280;63360;50.104;8.074;2022-10-29T08:10:26;97799.22;;;14.64;100.00
74708;BME280;63360;50.104;8.074;2022-10-29T08:12:58;97788.72;;;14.64;100.00
74708;BME280;63360;50.104;8.074;2022-10-29T08:15:27;97784.72;;;14.67;100.00
74708;BME280;63360;50.104;8.074;2022-10-29T08:17:54;97786.00;;;14.61;100.00
74708;BME280;63360;50.104;8.074;2022-10-29T08:20:23;97791.06;;;14.66;100.00
74708;BME280;63360;50.104;8.074;2022-10-29T08:22:50;97787.66;;;14.65;100.00
74708;BME280;63360;50.104;8.074;2022-10-29T08:25:17;97795.97;;;14.67;100.00
74708;BME280;63360;50.104;8.074;2022-10-29T08:27:43;97797.06;;;14.66;100.00
74708;BME280;63360;50.104;8.074;2022-10-29T08:30:12;97782.59;;;14.60;100.00
74708;BME280;63360;50.104;8.074;2022-10-29T08:32:44;97788.44;;;14.66;100.00
74708;BME280;63360;50.104;8.074;2022-10-29T08:35:12;97789.63;;;14.77;100.00
74708;BME280;63360;50.104;8.074;2022-10-29T08:37:43;97794.38;;;14.75;100.00
74708;BME280;63360;50.104;8.074;2022-10-29T08:45:54;97786.53;;;14.75;100.00
74708;BME280;63360;50.104;8.074;2022-10-29T08:51:36;97796.53;;;14.81;100.00
74708;BME280;63360;50.104;8.074;2022-10-29T08:54:01;97791.13;;;14.78;97.95
74708;BME280;63360;50.104;8.074;2022-10-29T08:56:52;97797.22;;;14.90;99.40
74708;BME280;63360;50.104;8.074;2022-10-29T08:59:28;97795.34;;;14.99;94.24
74708;BME280;63360;50.104;8.074;2022-10-29T09:01:58;97797.63;;;15.01;96.40
74708;BME280;63360;50.104;8.074;2022-10-29T09:04:28;97809.59;;;15.10;94.99
74708;BME280;63360;50.104;8.074;2022-10-29T09:21:38;97800.38;;;15.54;90.61
74708;BME280;63360;50.104;8.074;2022-10-29T09:24:12;97801.56;;;15.57;89.63
74708;BME280;63360;50.104;8.074;2022-10-29T09:26:45;97796.91;;;15.62;88.30
74708;BME280;63360;50.104;8.074;2022-10-29T09:29:37;97785.66;;;15.62;86.67
74708;BME280;63360;50.104;8.074;2022-10-29T09:32:19;97792.38;;;15.71;87.84
74708;BME280;63360;50.104;8.074;2022-10-29T09:34:53;97791.47;;;15.67;86.92
74708;BME280;63360;50.104;8.074;2022-10-29T09:37:26;97784.69;;;15.66;87.86
74708;BME280;63360;50.104;8.074;2022-10-29T09:39:55;97788.09;;;15.67;86.94
74708;BME280;63360;50.104;8.074;2022-10-29T09:42:33;97784.50;;;15.71;86.01
74708;BME280;63360;50.104;8.074;2022-10-29T09:45:04;97777.72;;;15.70;84.09
74708;BME280;63360;50.104;8.074;2022-10-29T09:47:59;97792.03;;;15.73;86.17
74708;BME280;63360;50.104;8.074;2022-10-29T09:50:49;97789.63;;;15.68;86.24
74708;BME280;63360;50.104;8.074;2022-10-29T09:53:17;97783.94;;;15.66;86.13
74708;BME280;63360;50.104;8.074;2022-10-29T09:55:46;97795.63;;;15.68;86.39
74708;BME280;63360;50.104;8.074;2022-10-29T09:58:26;97783.72;;;15.71;86.25
74708;BME280;63360;50.104;8.074;2022-10-29T10:00:53;97790.44;;;15.81;83.70
74708;BME280;63360;50.104;8.074;2022-10-29T10:03:35;97790.88;;;15.83;84.66
74708;BME280;63360;50.104;8.074;2022-10-29T10:06:09;97789.91;;;15.87;84.47
74708;BME280;63360;50.104;8.074;2022-10-29T10:09:05;97786.63;;;15.90;84.71
74708;BME280;63360;50.104;8.074;2022-10-29T10:11:37;97787.97;;;15.96;82.25
74708;BME280;63360;50.104;8.074;2022-10-29T10:14:16;97781.53;;;16.06;82.50
74708;BME280;63360;50.104;8.074;2022-10-29T10:16:45;97786.16;;;16.09;80.96
74708;BME280;63360;50.104;8.074;2022-10-29T10:19:23;97783.19;;;16.10;82.83
74708;BME280;63360;50.104;8.074;2022-10-29T10:22:01;97776.50;;;16.13;82.83
74708;BME280;63360;50.104;8.074;2022-10-29T10:24:32;97775.56;;;16.17;82.82
74708;BME280;63360;50.104;8.074;2022-10-29T10:27:00;97763.53;;;16.16;81.62
74708;BME280;63360;50.104;8.074;2022-10-29T10:29:27;97775.25;;;16.31;79.66
74708;BME280;63360;50.104;8.074;2022-10-29T10:34:36;97760.47;;;16.51;81.66
74708;BME280;63360;50.104;8.074;2022-10-29T10:42:13;97753.19;;;16.56;83.34
74708;BME280;63360;50.104;8.074;2022-10-29T10:44:57;97765.22;;;16.69;83.04
74708;BME280;63360;50.104;8.074;2022-10-29T10:47:33;97762.06;;;16.76;81.08
74708;BME280;63360;50.104;8.074;2022-10-29T10:50:20;97755.91;;;16.84;78.87
74708;BME280;63360;50.104;8.074;2022-10-29T10:52:48;97744.53;;;16.80;80.98
74708;BME280;63360;50.104;8.074;2022-10-29T11:00:56;97730.41;;;16.84;78.59
74708;BME280;63360;50.104;8.074;2022-10-29T11:03:37;97726.44;;;16.90;79.16
74708;BME280;63360;50.104;8.074;2022-10-29T11:06:14;97736.84;;;16.99;77.32
74708;BME280;63360;50.104;8.074;2022-10-29T11:08:45;97727.41;;;16.98;77.69
74708;BME280;63360;50.104;8.074;2022-10-29T11:11:18;97715.69;;;16.95;78.47
74708;BME280;63360;50.104;8.074;2022-10-29T11:13:48;97716.69;;;17.03;79.06
74708;BME280;63360;50.104;8.074;2022-10-29T11:16:20;97719.50;;;17.10;78.18
74708;BME280;63360;50.104;8.074;2022-10-29T11:19:02;97714.78;;;17.16;77.54
74708;BME280;63360;50.104;8.074;2022-10-29T11:24:05;97714.88;;;17.19;76.49
74708;BME280;63360;50.104;8.074;2022-10-29T11:26:43;97710.25;;;17.28;76.92
74708;BME280;63360;50.104;8.074;2022-10-29T11:29:24;97719.31;;;17.31;76.96
74708;BME280;63360;50.104;8.074;2022-10-29T11:34:48;97714.97;;;17.23;79.18
74708;BME280;63360;50.104;8.074;2022-10-29T11:42:47;97709.81;;;17.26;72.74
74708;BME280;63360;50.104;8.074;2022-10-29T11:45:18;97702.47;;;17.32;75.13
74708;BME280;63360;50.104;8.074;2022-10-29T11:48:12;97708.91;;;17.34;75.20
74708;BME280;63360;50.104;8.074;2022-10-29T11:50:57;97700.25;;;17.34;73.17
74708;BME280;63360;50.104;8.074;2022-10-29T11:58:56;97705.50;;;17.34;76.02
74708;BME280;63360;50.104;8.074;2022-10-29T12:01:41;97708.78;;;17.43;76.89
74708;BME280;63360;50.104;8.074;2022-10-29T12:09:40;97698.63;;;17.29;79.15
74708;BME280;63360;50.104;8.074;2022-10-29T12:12:48;97694.03;;;17.26;80.84
74708;BME280;63360;50.104;8.074;2022-10-29T12:15:21;97698.88;;;17.24;80.09
74708;BME280;63360;50.104;8.074;2022-10-29T12:18:09;97691.53;;;17.18;80.67
74708;BME280;63360;50.104;8.074;2022-10-29T12:23:32;97688.50;;;17.16;80.68
74708;BME280;63360;50.104;8.074;2022-10-29T12:29:01;97696.69;;;17.14;80.45
74708;BME280;63360;50.104;8.074;2022-10-29T12:31:58;97695.50;;;17.12;81.24
74708;BME280;63360;50.104;8.074;2022-10-29T12:34:43;97679.19;;;17.06;81.99
74708;BME280;63360;50.104;8.074;2022-10-29T12:37:30;97672.66;;;17.00;82.72
74708;BME280;63360;50.104;8.074;2022-10-29T12:40:13;97679.88;;;17.03;82.22
74708;BME280;63360;50.104;8.074;2022-10-29T12:42:41;97679.78;;;17.00;84.79
74708;BME280;63360;50.104;8.074;2022-10-29T12:48:14;97666.59;;;17.12;83.67
74708;BME280;63360;50.104;8.074;2022-10-29T12:51:08;97663.44;;;17.06;84.03
74708;BME280;63360;50.104;8.074;2022-10-29T12:53:48;97658.53;;;17.05;85.85
74708;BME280;63360;50.104;8.074;2022-10-29T12:56:17;97657.56;;;16.97;86.96
74708;BME280;63360;50.104;8.074;2022-10-29T13:04:29;97647.47;;;16.99;82.57
74708;BME280;63360;50.104;8.074;2022-10-29T13:06:59;97659.84;;;16.98;82.91
74708;BME280;63360;50.104;8.074;2022-10-29T13:09:31;97661.81;;;17.02;81.71
74708;BME280;63360;50.104;8.074;2022-10-29T13:12:01;97649.69;;;16.97;82.37
74708;BME280;63360;50.104;8.074;2022-10-29T13:14:40;97640.91;;;16.93;81.87
74708;BME280;63360;50.104;8.074;2022-10-29T13:17:30;97638.34;;;17.09;80.68
74708;BME280;63360;50.104;8.074;2022-10-29T13:20:01;97645.63;;;17.00;80.60
74708;BME280;63360;50.104;8.074;2022-10-29T13:22:33;97644.06;;;16.98;80.86
74708;BME280;63360;50.104;8.074;2022-10-29T13:25:41;97639.69;;;17.03;82.17
74708;BME280;63360;50.104;8.074;2022-10-29T13:30:38;97638.94;;;17.02;82.52
74708;BME280;63360;50.104;8.074;2022-10-29T13:41:39;97633.19;;;17.12;81.64
74708;BME280;63360;50.104;8.074;2022-10-29T13:44:32;97640.06;;;17.17;83.66
74708;BME280;63360;50.104;8.074;2022-10-29T13:46:58;97643.38;;;17.14;81.95
74708;BME280;63360;50.104;8.074;2022-10-29T13:51:59;97639.28;;;17.44;76.62
74708;BME280;63360;50.104;8.074;2022-10-29T14:02:27;97627.78;;;17.21;81.00
74708;BME280;63360;50.104;8.074;2022-10-29T14:05:01;97621.22;;;17.15;80.34
74708;BME280;63360;50.104;8.074;2022-10-29T14:07:40;97613.16;;;17.08;80.17
74708;BME280;63360;50.104;8.074;2022-10-29T14:10:20;97616.66;;;17.12;79.10
74708;BME280;63360;50.104;8.074;2022-10-29T14:12:54;97615.56;;;17.13;80.15
74708;BME280;63360;50.104;8.074;2022-10-29T14:15:23;97616.31;;;17.13;80.20
74708;BME280;63360;50.104;8.074;2022-10-29T14:17:49;97611.72;;;17.10;80.68
74708;BME280;63360;50.104;8.074;2022-10-29T14:20:26;97613.59;;;17.10;80.36
74708;BME280;63360;50.104;8.074;2022-10-29T14:22:53;97607.72;;;17.01;81.27
74708;BME280;63360;50.104;8.074;2022-10-29T14:30:52;97604.00;;;17.02;78.98
74708;BME280;63360;50.104;8.074;2022-10-29T14:33:28;97609.00;;;17.07;78.76
74708;BME280;63360;50.104;8.074;2022-10-29T14:36:04;97607.91;;;17.08;77.98
74708;BME280;63360;50.104;8.074;2022-10-29T14:38:51;97610.41;;;17.16;76.89
74708;BME280;63360;50.104;8.074;2022-10-29T14:41:20;97609.28;;;17.17;78.25
74708;BME280;63360;50.104;8.074;2022-10-29T14:46:41;97614.25;;;17.07;81.43
74708;BME280;63360;50.104;8.074;2022-10-29T14:49:17;97616.13;;;17.06;80.26
74708;BME280;63360;50.104;8.074;2022-10-29T14:52:02;97610.00;;;17.02;80.79
74708;BME280;63360;50.104;8.074;2022-10-29T14:54:34;97602.50;;;16.88;80.09
74708;BME280;63360;50.104;8.074;2022-10-29T14:57:08;97608.19;;;16.90;79.19
74708;BME280;63360;50.104;8.074;2022-10-29T14:59:36;97614.63;;;16.93;79.91
74708;BME280;63360;50.104;8.074;2022-10-29T15:02:09;97610.28;;;16.85;79.58
74708;BME280;63360;50.104;8.074;2022-10-29T15:04:58;97617.09;;;16.86;77.84
74708;BME280;63360;50.104;8.074;2022-10-29T15:07:34;97609.34;;;16.77;79.55
74708;BME280;63360;50.104;8.074;2022-10-29T15:12:35;97616.25;;;16.70;81.61
74708;BME280;63360;50.104;8.074;2022-10-29T15:17:51;97628.84;;;16.64;84.42
74708;BME280;63360;50.104;8.074;2022-10-29T15:20:25;97610.78;;;16.51;84.86
74708;BME280;63360;50.104;8.074;2022-10-29T15:22:54;97609.59;;;16.48;85.80
74708;BME280;63360;50.104;8.074;2022-10-29T15:25:38;97616.94;;;16.43;86.51